Main page
METAR-TAF:

METAR-TAF

Airports :

Southampton Airport

Southampton, England

latitude: 50-54N, longitude: 001-24W, elevation: 9 m

Current weather observation

The report was made 35 minutes ago, at 18:50 UTC
Wind 6 kt from the West/Southwest, varying between Southwest and West
Temperature 9°C
Humidity 93%
Pressure 1024 hPa
Visibility 10 km or more
Broken clouds at a height of 900 ft

METAR: EGHI 291850Z 25006KT 220V280 9999 BKN009 09/08 Q1024

Time: 19:25 (19:25 UTC)

Forecast

The report was made 2 hours and 26 minutes ago, at 16:59 UTC
Forecast valid from 29 at 18 UTC to 29 at 23 UTC
Wind 5 kt from the West/Southwest
Visibility 10 km or more
Scattered clouds at a height of 3000 ft
Probability 30% :
Temporary
from 29 at 18 UTC to 29 at 23 UTC
Visibility: 3000 m
Broken clouds at a height of 800 ft
light rain, drizzle

TAF: EGHI 291659Z 2918/2923 24005KT 9999 SCT030 PROB30 TEMPO 2918/2923 3000 -RADZ BKN008

Weather observations and forecasts of more than 4000 airports (METAR and TAF reports).

The available stations are represented by yellow and red dots on the map.

Hover mouse over dot to see the name of the station.

Then click to see weather observations and forecasts.

To change the map : click on the green buttons with a black cross to zoom in, on the green button with a dash to zoom out, or on the green arrows for adjacent maps.


METAR-TAF: